Time;durP1;ratioP1;P1;durP2;ratioP2;P2;SDS_P1;SDS_P2;PMS_P1;PMS_P2;Temp;Humidity;BMP_temperature;BMP_pressure;BME280_temperature;BME280_humidity;BME280_pressure;Samples;Min_cycle;Max_cycle;Signal;HPM_P1;HPM_P2
2022/04/03 00:00:17;;;;;;;2.97;1.23;;;;;;;0.61;40.32;101847.97;4973830;28;97457;-83
2022/04/03 00:02:42;;;;;;;3.90;1.47;;;;;;;0.60;40.24;101843.69;4981747;28;97492;-83
2022/04/03 00:05:08;;;;;;;2.33;1.90;;;;;;;0.56;40.26;101832.91;4976307;28;99710;-83
2022/04/03 00:07:33;;;;;;;1.83;1.30;;;;;;;0.54;40.55;101837.16;4977260;28;96879;-84
2022/04/03 00:10:00;;;;;;;3.40;1.50;;;;;;;0.55;40.35;101839.47;4975667;28;97384;-83
2022/04/03 00:12:25;;;;;;;2.87;1.57;;;;;;;0.53;40.36;101844.50;4986332;28;97728;-82
2022/04/03 00:14:51;;;;;;;4.63;1.60;;;;;;;0.51;40.61;101827.09;4989239;28;98020;-83
2022/04/03 00:17:17;;;;;;;3.47;1.47;;;;;;;0.51;40.71;101827.88;4988203;28;96937;-84
2022/04/03 00:19:43;;;;;;;4.10;2.00;;;;;;;0.50;40.70;101831.00;4982627;28;96978;-83
2022/04/03 00:22:10;;;;;;;3.83;2.13;;;;;;;0.46;40.57;101838.38;4986229;28;96782;-83
2022/04/03 00:24:35;;;;;;;2.70;1.40;;;;;;;0.43;40.71;101822.91;4986839;28;100356;-83
2022/04/03 00:27:01;;;;;;;1.90;1.50;;;;;;;0.39;40.85;101835.69;4988835;28;96936;-83
2022/04/03 00:29:27;;;;;;;2.07;1.33;;;;;;;0.35;40.96;101824.09;4986776;28;97212;-84
2022/04/03 00:31:52;;;;;;;1.90;1.30;;;;;;;0.35;41.12;101835.69;4980139;28;99912;-83
2022/04/03 00:34:18;;;;;;;1.97;1.17;;;;;;;0.30;40.95;101844.22;4990089;28;97331;-83
2022/04/03 00:36:43;;;;;;;1.83;1.40;;;;;;;0.26;41.15;101829.16;4985935;28;97343;-83
2022/04/03 00:39:08;;;;;;;1.60;1.17;;;;;;;0.26;40.84;101845.41;4976772;28;97077;-83
2022/04/03 00:41:35;;;;;;;1.63;1.20;;;;;;;0.23;41.12;101832.66;4987664;28;97867;-84
2022/04/03 00:44:00;;;;;;;1.13;0.90;;;;;;;0.21;41.15;101830.34;4988641;28;99182;-83
2022/04/03 00:46:27;;;;;;;1.83;1.10;;;;;;;0.19;41.21;101821.84;4987966;28;96902;-83
2022/04/03 00:48:53;;;;;;;1.70;1.23;;;;;;;0.12;41.13;101829.19;4978019;28;97188;-83
2022/04/03 00:51:19;;;;;;;1.93;1.20;;;;;;;0.14;41.21;101822.25;4983234;28;98591;-83
2022/04/03 00:53:44;;;;;;;1.43;0.93;;;;;;;0.15;41.30;101828.44;4987788;28;96983;-84
2022/04/03 00:56:10;;;;;;;1.30;1.17;;;;;;;0.11;41.56;101824.97;4980239;28;96869;-84
2022/04/03 00:58:38;;;;;;;2.20;1.23;;;;;;;0.08;41.13;101823.03;4982916;28;96941;-83
2022/04/03 01:01:04;;;;;;;1.43;1.30;;;;;;;0.03;41.42;101812.63;4989045;28;96734;-84
2022/04/03 01:03:30;;;;;;;1.53;1.07;;;;;;;0.03;41.55;101823.44;4987430;28;98087;-83
2022/04/03 01:05:56;;;;;;;1.20;1.07;;;;;;;-0.01;41.35;101824.22;4988609;28;97098;-84
2022/04/03 01:08:24;;;;;;;3.27;1.13;;;;;;;-0.02;41.63;101838.13;4987607;28;97152;-83
2022/04/03 01:10:49;;;;;;;1.37;1.27;;;;;;;-0.12;41.62;101807.25;4982532;28;99785;-83
2022/04/03 01:13:15;;;;;;;2.03;1.23;;;;;;;-0.04;41.78;101814.19;4986920;28;99385;-83
2022/04/03 01:15:41;;;;;;;1.00;0.93;;;;;;;-0.08;41.86;101816.13;4984028;28;97108;-83
2022/04/03 01:18:06;;;;;;;1.50;1.40;;;;;;;-0.01;41.86;101813.41;4985972;28;97009;-83
2022/04/03 01:20:32;;;;;;;1.63;1.40;;;;;;;0.02;41.57;101816.50;4988367;28;97991;-83
2022/04/03 01:22:57;;;;;;;1.33;1.23;;;;;;;0.01;42.18;101842.75;4983043;28;98285;-82
2022/04/03 01:25:23;;;;;;;1.17;1.17;;;;;;;0.02;42.07;101828.09;4984553;28;96966;-83
2022/04/03 01:27:48;;;;;;;1.10;1.00;;;;;;;0.03;41.83;101820.72;4987844;28;97250;-83
2022/04/03 01:30:13;;;;;;;3.50;1.70;;;;;;;0.06;42.21;101811.84;4988281;28;99300;-83
2022/04/03 01:32:40;;;;;;;1.33;1.23;;;;;;;0.09;42.02;101811.06;4986821;28;99189;-83
2022/04/03 01:35:06;;;;;;;1.53;1.00;;;;;;;0.03;42.05;101818.03;4987634;28;97178;-83
2022/04/03 01:37:32;;;;;;;2.03;1.40;;;;;;;0.05;42.08;101823.81;4985092;28;96955;-83
2022/04/03 01:39:58;;;;;;;1.47;1.20;;;;;;;0.07;42.08;101814.16;4980672;28;98843;-83
2022/04/03 01:42:23;;;;;;;1.47;1.13;;;;;;;0.08;42.10;101807.59;4987144;28;99547;-83
2022/04/03 01:44:49;;;;;;;3.83;1.43;;;;;;;0.08;42.08;101804.09;4983637;28;96854;-83
2022/04/03 01:47:14;;;;;;;1.73;1.20;;;;;;;0.05;42.48;101789.41;4989827;28;97282;-83
2022/04/03 01:49:40;;;;;;;1.70;1.50;;;;;;;0.07;42.25;101797.16;4983757;28;100592;-84
2022/04/03 01:52:05;;;;;;;1.83;1.33;;;;;;;0.08;42.63;101794.06;4987355;28;98235;-83
2022/04/03 01:54:31;;;;;;;1.30;1.20;;;;;;;0.09;42.29;101811.06;4984682;28;97153;-83
2022/04/03 01:56:56;;;;;;;1.87;1.40;;;;;;;0.08;42.50;101809.50;4986996;28;96899;-84
2022/04/03 01:59:22;;;;;;;3.17;1.60;;;;;;;0.02;42.35;101803.75;4976477;28;97517;-84
2022/04/03 02:01:48;;;;;;;1.60;1.40;;;;;;;-0.03;42.48;101809.53;4985829;28;98678;-84
2022/04/03 02:04:13;;;;;;;1.80;1.37;;;;;;;-0.09;42.42;101800.31;4983917;28;96706;-83
2022/04/03 02:06:39;;;;;;;2.87;1.70;;;;;;;-0.12;42.68;101804.56;4986662;28;97033;-84
2022/04/03 02:09:04;;;;;;;2.80;1.77;;;;;;;-0.13;42.68;101794.09;4979159;28;98295;-83
2022/04/03 02:11:30;;;;;;;3.40;1.70;;;;;;;-0.19;42.68;101799.16;4981283;28;97382;-83
2022/04/03 02:13:55;;;;;;;1.80;1.60;;;;;;;-0.15;43.21;101786.41;4987827;28;97101;-84
2022/04/03 02:16:22;;;;;;;1.53;1.43;;;;;;;-0.10;43.00;101777.88;4988314;28;96852;-83
2022/04/03 02:18:48;;;;;;;1.53;1.27;;;;;;;-0.06;43.03;101784.06;4986130;28;102087;-84
2022/04/03 02:21:14;;;;;;;1.87;1.77;;;;;;;-0.05;43.43;101785.59;4982690;28;97283;-83
2022/04/03 02:23:39;;;;;;;1.37;1.27;;;;;;;-0.02;43.10;101782.09;4985182;28;96886;-83
2022/04/03 02:26:05;;;;;;;2.13;1.77;;;;;;;0.01;43.41;101780.56;4984514;28;96996;-84
2022/04/03 02:28:30;;;;;;;2.00;1.30;;;;;;;0.07;43.35;101797.16;4983320;28;97792;-83
2022/04/03 02:30:56;;;;;;;2.63;1.50;;;;;;;0.09;43.29;101786.72;4983118;28;98506;-84
2022/04/03 02:33:21;;;;;;;2.60;1.67;;;;;;;0.09;43.38;101779.34;4985352;28;97211;-83
2022/04/03 02:35:47;;;;;;;2.40;1.73;;;;;;;0.12;43.18;101791.31;4981792;28;97333;-84
2022/04/03 02:38:15;;;;;;;4.20;1.67;;;;;;;0.07;43.42;101814.16;5000156;28;98641;-83
2022/04/03 02:40:41;;;;;;;2.87;1.80;;;;;;;0.04;43.13;101790.59;4982307;28;104684;-83
2022/04/03 02:43:06;;;;;;;1.40;1.30;;;;;;;0.06;43.22;101792.91;4986971;28;96763;-83
2022/04/03 02:45:32;;;;;;;1.77;1.63;;;;;;;0.10;43.42;101789.03;4984415;28;97516;-83
2022/04/03 02:47:58;;;;;;;1.47;1.37;;;;;;;0.12;43.41;101769.69;4985368;28;96837;-84
2022/04/03 02:50:25;;;;;;;1.93;1.83;;;;;;;0.15;43.87;101777.03;4985208;28;99399;-83
2022/04/03 02:52:52;;;;;;;2.10;1.53;;;;;;;0.19;43.69;101786.66;4993279;28;96672;-84
2022/04/03 02:55:19;;;;;;;3.37;2.00;;;;;;;0.20;43.82;101792.88;4998447;28;97041;-83
2022/04/03 02:57:45;;;;;;;1.20;1.10;;;;;;;0.24;43.64;101780.09;4979794;28;99344;-84
2022/04/03 03:00:14;;;;;;;2.33;1.90;;;;;;;0.22;43.56;101783.16;4984332;28;98537;-83
2022/04/03 03:02:44;;;;;;;1.87;1.50;;;;;;;0.27;43.61;101790.09;4980657;28;97449;-83
2022/04/03 03:05:12;;;;;;;3.20;2.17;;;;;;;0.34;43.71;101798.19;4988140;28;97402;-84
2022/04/03 03:07:38;;;;;;;1.33;1.23;;;;;;;0.37;43.65;101775.75;4983512;28;97030;-83
2022/04/03 03:10:06;;;;;;;1.87;1.10;;;;;;;0.37;43.81;101762.97;4973521;28;99007;-83
2022/04/03 03:12:32;;;;;;;2.23;1.63;;;;;;;0.40;44.04;101777.66;4984538;28;97018;-83
2022/04/03 03:14:57;;;;;;;3.20;1.33;;;;;;;0.43;43.75;101769.53;4985776;28;96868;-83
2022/04/03 03:17:23;;;;;;;1.70;1.60;;;;;;;0.46;43.86;101766.03;4987647;28;97835;-84
2022/04/03 03:19:48;;;;;;;2.20;1.40;;;;;;;0.46;43.69;101754.44;4987415;28;99351;-84
2022/04/03 03:22:14;;;;;;;1.50;1.40;;;;;;;0.51;43.63;101768.31;4983859;28;96946;-83
2022/04/03 03:24:39;;;;;;;2.07;1.70;;;;;;;0.54;43.88;101772.19;4984340;28;96850;-83
2022/04/03 03:27:05;;;;;;;3.60;1.63;;;;;;;0.53;44.01;101776.03;4979193;28;98501;-83
2022/04/03 03:29:30;;;;;;;2.70;1.63;;;;;;;0.56;43.83;101777.97;4986164;28;97583;-84
2022/04/03 03:31:56;;;;;;;1.40;1.30;;;;;;;0.51;45.11;101794.63;4982407;28;97084;-84
2022/04/03 03:34:21;;;;;;;1.77;1.67;;;;;;;0.42;44.13;101786.16;4983047;28;97250;-84
2022/04/03 03:36:47;;;;;;;1.90;1.50;;;;;;;0.42;43.91;101769.91;4986079;28;97512;-83
2022/04/03 03:39:13;;;;;;;1.93;1.23;;;;;;;0.44;44.08;101773.78;4986560;28;96691;-83
2022/04/03 03:41:39;;;;;;;2.60;1.60;;;;;;;0.49;44.07;101769.88;4987951;28;97144;-83
2022/04/03 03:44:10;;;;;;;2.30;1.77;;;;;;;0.47;43.99;101777.63;4981126;28;97313;-83
2022/04/03 03:46:39;;;;;;;1.77;1.67;;;;;;;0.56;43.99;101770.63;4989583;28;97032;-83
2022/04/03 03:49:06;;;;;;;1.83;1.60;;;;;;;0.59;44.10;101786.06;4986530;28;97417;-83
2022/04/03 03:51:32;;;;;;;2.30;1.40;;;;;;;0.48;44.18;101790.00;4988028;28;97850;-83
2022/04/03 03:53:58;;;;;;;2.00;1.80;;;;;;;0.46;44.30;101784.97;4985507;28;97246;-84
2022/04/03 03:56:23;;;;;;;2.90;1.93;;;;;;;0.53;44.26;101784.94;4979758;28;97877;-83
2022/04/03 03:58:48;;;;;;;2.10;1.87;;;;;;;0.58;44.31;101789.16;4988043;28;98523;-84
2022/04/03 04:01:14;;;;;;;2.37;1.23;;;;;;;0.64;44.35;101780.22;4976109;28;96736;-83
2022/04/03 04:03:40;;;;;;;2.80;1.63;;;;;;;0.66;44.20;101786.03;4985764;28;97268;-83
2022/04/03 04:06:06;;;;;;;1.77;1.50;;;;;;;0.69;44.23;101779.81;4988162;28;99495;-83
2022/04/03 04:08:32;;;;;;;1.80;1.70;;;;;;;0.73;44.41;101779.78;4987293;28;98729;-83
2022/04/03 04:10:58;;;;;;;1.97;1.80;;;;;;;0.81;44.25;101792.13;4984733;28;97155;-83
2022/04/03 04:13:24;;;;;;;1.47;1.20;;;;;;;0.86;44.47;101802.53;4979616;28;96985;-83
2022/04/03 04:15:50;;;;;;;2.67;1.20;;;;;;;0.87;44.43;101778.94;4987599;28;97203;-83
2022/04/03 04:18:15;;;;;;;1.60;1.50;;;;;;;0.96;44.20;101787.38;4969907;28;97148;-83
2022/04/03 04:20:40;;;;;;;2.10;1.67;;;;;;;0.99;44.24;101781.16;4983475;28;97250;-83
2022/04/03 04:23:06;;;;;;;2.50;1.50;;;;;;;1.00;44.20;101780.78;4982539;28;96666;-83
2022/04/03 04:25:31;;;;;;;1.50;1.37;;;;;;;0.97;44.41;101762.59;4986758;28;98345;-83
2022/04/03 04:27:57;;;;;;;1.40;1.30;;;;;;;1.00;44.46;101788.13;4987819;28;98494;-82
2022/04/03 04:30:23;;;;;;;2.10;1.70;;;;;;;1.03;44.25;101776.47;4987490;28;96897;-83
2022/04/03 04:32:48;;;;;;;1.60;1.50;;;;;;;1.02;44.64;101781.16;4989524;28;96859;-83
2022/04/03 04:35:14;;;;;;;2.53;1.90;;;;;;;0.98;44.41;101775.00;4982415;28;98841;-82
2022/04/03 04:37:41;;;;;;;1.50;1.40;;;;;;;0.97;44.44;101781.56;4987287;28;97005;-83
2022/04/03 04:40:07;;;;;;;3.17;1.70;;;;;;;0.93;44.42;101769.97;4988331;28;96933;-83
2022/04/03 04:42:33;;;;;;;2.20;1.33;;;;;;;0.97;44.82;101772.66;4988931;28;97396;-83
2022/04/03 04:44:59;;;;;;;1.60;1.27;;;;;;;0.95;44.56;101770.34;4988284;28;99695;-83
2022/04/03 04:47:25;;;;;;;1.70;1.60;;;;;;;0.92;44.74;101770.38;4978603;28;99216;-83
2022/04/03 04:49:50;;;;;;;2.30;1.70;;;;;;;0.89;44.70;101769.25;4986063;28;96772;-82
2022/04/03 04:52:17;;;;;;;1.57;1.47;;;;;;;0.90;44.77;101776.19;4987585;28;96957;-83
2022/04/03 04:54:42;;;;;;;2.00;1.40;;;;;;;0.87;44.83;101777.00;4985604;28;97941;-83
2022/04/03 04:57:08;;;;;;;1.83;1.27;;;;;;;0.87;44.72;101768.88;4987433;28;97625;-83
2022/04/03 04:59:33;;;;;;;2.80;1.20;;;;;;;0.85;44.90;101763.09;4987183;28;97220;-83
2022/04/03 05:01:59;;;;;;;1.43;1.33;;;;;;;0.84;45.08;101769.66;4986295;28;96860;-83
2022/04/03 05:04:26;;;;;;;3.10;1.73;;;;;;;0.78;45.07;101765.84;4981871;28;97742;-83
2022/04/03 05:06:52;;;;;;;1.70;1.60;;;;;;;0.77;45.15;101767.78;4987897;28;99330;-83
2022/04/03 05:09:19;;;;;;;1.57;1.47;;;;;;;0.79;45.17;101778.19;4987941;28;96797;-83
2022/04/03 05:11:46;;;;;;;1.83;1.40;;;;;;;0.74;45.24;101768.56;4988923;28;97409;-83
2022/04/03 05:14:13;;;;;;;3.57;1.53;;;;;;;0.77;45.13;101785.94;4985809;28;97610;-82
2022/04/03 05:16:39;;;;;;;1.33;1.23;;;;;;;0.77;45.25;101770.47;4986652;28;97644;-83
2022/04/03 05:19:04;;;;;;;1.90;1.80;;;;;;;0.74;45.23;101779.38;4985177;28;96798;-84
2022/04/03 05:21:30;;;;;;;1.40;1.30;;;;;;;0.77;45.51;101772.41;4988258;28;96868;-83
2022/04/03 05:23:55;;;;;;;1.87;1.50;;;;;;;0.77;45.42;101767.78;4985199;28;97285;-83
2022/04/03 05:26:21;;;;;;;3.73;1.67;;;;;;;0.77;45.63;101781.31;4987164;28;98674;-83
2022/04/03 05:28:46;;;;;;;2.27;1.20;;;;;;;0.77;45.26;101772.41;4981613;28;96855;-83
2022/04/03 05:31:11;;;;;;;1.70;1.60;;;;;;;0.78;45.32;101771.25;4987303;28;97175;-83
2022/04/03 05:33:37;;;;;;;1.80;1.53;;;;;;;0.75;45.34;101769.34;4988917;28;97656;-83
2022/04/03 05:36:03;;;;;;;1.80;1.67;;;;;;;0.80;45.43;101770.84;4987360;28;96953;-83
2022/04/03 05:38:30;;;;;;;1.63;1.53;;;;;;;0.77;45.42;101780.53;4985360;28;96960;-83
2022/04/03 05:40:56;;;;;;;2.10;1.90;;;;;;;0.80;45.47;101774.34;4983432;28;97329;-84
2022/04/03 05:43:21;;;;;;;1.97;1.60;;;;;;;0.81;45.42;101775.13;4987280;28;98400;-83
2022/04/03 05:45:48;;;;;;;2.40;1.70;;;;;;;0.82;45.73;101773.94;4979431;28;97072;-83
2022/04/03 05:48:13;;;;;;;2.03;1.83;;;;;;;0.76;45.55;101765.47;4988967;28;97255;-83
2022/04/03 05:50:39;;;;;;;2.33;2.00;;;;;;;0.84;45.61;101785.91;4985348;28;97218;-83
2022/04/03 05:53:05;;;;;;;2.10;1.80;;;;;;;0.89;45.94;101771.19;4981357;28;97175;-84
2022/04/03 05:55:31;;;;;;;2.60;1.73;;;;;;;0.92;45.65;101790.09;4982515;28;97072;-83
2022/04/03 05:57:56;;;;;;;1.53;1.43;;;;;;;1.00;45.75;101782.69;4982878;28;97199;-84
2022/04/03 06:00:23;;;;;;;1.97;1.83;;;;;;;1.04;45.94;101783.44;4988228;28;96842;-83
2022/04/03 06:03:00;;;;;;;1.87;1.77;;;;;;;1.11;46.85;101788.81;4994971;28;98019;-84
2022/04/03 06:05:30;;;;;;;2.47;2.13;;;;;;;1.16;46.05;101786.44;4984532;28;98243;-82
2022/04/03 06:07:56;;;;;;;1.80;1.70;;;;;;;1.20;45.90;101810.81;4986242;28;96814;-83
2022/04/03 06:10:23;;;;;;;1.90;1.53;;;;;;;1.27;45.98;101792.53;4982761;28;97108;-83
2022/04/03 06:12:55;;;;;;;2.03;1.83;;;;;;;1.29;46.14;101795.63;4984104;28;96889;-82
2022/04/03 06:15:20;;;;;;;1.57;1.47;;;;;;;1.33;45.97;101798.31;4983219;28;102609;-82
2022/04/03 06:17:50;;;;;;;1.60;1.50;;;;;;;1.38;46.12;101792.44;4983582;28;97270;-83
2022/04/03 06:20:17;;;;;;;1.70;1.60;;;;;;;1.41;46.31;101811.41;4986233;28;97090;-82
2022/04/03 06:22:42;;;;;;;1.40;1.30;;;;;;;1.44;46.07;101804.41;4981284;28;98831;-82
2022/04/03 06:25:08;;;;;;;2.60;1.93;;;;;;;1.48;45.99;101800.50;4983043;28;99838;-83
2022/04/03 06:27:34;;;;;;;1.83;1.73;;;;;;;1.52;46.16;101822.16;4984246;28;96868;-83
2022/04/03 06:29:59;;;;;;;1.70;1.60;;;;;;;1.56;46.16;101793.06;4982523;28;97983;-82
2022/04/03 06:32:25;;;;;;;1.27;1.20;;;;;;;1.68;46.51;101789.06;4986486;28;99434;-82
2022/04/03 06:34:51;;;;;;;1.77;1.67;;;;;;;1.74;46.49;101804.50;4985402;28;98430;-82
2022/04/03 06:37:17;;;;;;;1.40;1.30;;;;;;;1.85;46.57;101804.38;4985798;28;96924;-83
2022/04/03 06:39:42;;;;;;;4.00;1.87;;;;;;;1.92;46.87;101804.31;4977911;28;96917;-82
2022/04/03 06:42:09;;;;;;;2.43;1.77;;;;;;;2.01;46.74;101818.19;4987587;28;98755;-81
2022/04/03 06:44:35;;;;;;;1.63;1.50;;;;;;;2.10;46.69;101796.72;4985540;28;98817;-82
2022/04/03 06:47:00;;;;;;;2.80;1.63;;;;;;;2.17;46.59;101797.41;4980873;28;97171;-83
2022/04/03 06:49:29;;;;;;;4.10;1.30;;;;;;;2.34;47.08;101784.78;4982443;28;96877;-82
2022/04/03 06:51:54;;;;;;;1.53;1.43;;;;;;;2.47;46.92;101793.91;4983157;28;99962;-83
2022/04/03 06:54:20;;;;;;;1.60;1.50;;;;;;;2.63;47.15;101801.47;4988146;28;99388;-82
2022/04/03 06:56:45;;;;;;;1.30;1.20;;;;;;;2.81;47.06;101786.47;4984692;28;97227;-82
2022/04/03 06:59:10;;;;;;;2.10;1.90;;;;;;;3.00;47.29;101785.78;4985745;28;97386;-82
2022/04/03 07:01:36;;;;;;;1.80;1.57;;;;;;;3.16;47.08;101789.81;4986665;28;99017;-82
2022/04/03 07:04:02;;;;;;;2.37;1.50;;;;;;;3.24;46.93;101789.28;4989703;28;97371;-81
2022/04/03 07:06:28;;;;;;;2.57;1.63;;;;;;;3.38;46.81;101786.31;4986911;28;97356;-83
2022/04/03 07:08:53;;;;;;;1.20;1.10;;;;;;;3.46;46.75;101793.16;4985655;28;96908;-82
2022/04/03 07:11:19;;;;;;;1.40;1.30;;;;;;;3.57;46.64;101785.59;4984685;28;99446;-82
2022/04/03 07:13:44;;;;;;;5.43;1.63;;;;;;;3.65;46.61;101781.56;4991361;28;97424;-82
2022/04/03 07:16:10;;;;;;;1.50;1.40;;;;;;;3.75;46.54;101790.72;4990146;28;99134;-82
2022/04/03 07:18:36;;;;;;;1.60;1.23;;;;;;;3.87;46.67;101792.81;4985970;28;96997;-82
2022/04/03 07:21:01;;;;;;;1.43;1.33;;;;;;;4.01;46.60;101787.09;4989167;28;98469;-82
2022/04/03 07:23:27;;;;;;;1.77;1.20;;;;;;;4.18;46.44;101798.81;4989276;28;98789;-81
2022/04/03 07:25:53;;;;;;;1.23;1.17;;;;;;;4.33;46.34;101789.94;4987213;28;97077;-82
2022/04/03 07:28:18;;;;;;;1.30;1.20;;;;;;;4.47;46.34;101797.81;4989375;28;97022;-82
2022/04/03 07:30:44;;;;;;;1.60;1.50;;;;;;;4.54;46.33;101788.72;4989410;28;97889;-83
2022/04/03 07:33:09;;;;;;;1.47;1.37;;;;;;;4.57;46.37;101802.25;4989656;28;97400;-84
2022/04/03 07:35:35;;;;;;;1.50;1.40;;;;;;;4.65;46.62;101807.56;4981075;28;97178;-83
2022/04/03 07:38:00;;;;;;;3.13;1.37;;;;;;;4.75;46.48;101790.19;4990700;28;96986;-84
2022/04/03 07:40:25;;;;;;;1.70;1.60;;;;;;;4.82;46.46;101785.34;4987015;28;98746;-83
2022/04/03 07:42:52;;;;;;;1.47;1.33;;;;;;;4.97;46.22;101791.22;4987560;28;97698;-83
2022/04/03 07:45:18;;;;;;;2.60;1.30;;;;;;;5.16;46.44;101788.41;4988941;28;97123;-83
2022/04/03 07:47:53;;;;;;;4.50;1.33;;;;;;;5.32;46.87;101795.81;4990197;28;96837;-83
2022/04/03 07:50:19;;;;;;;1.47;1.37;;;;;;;5.47;46.00;101785.31;4988106;28;100864;-83
2022/04/03 07:52:46;;;;;;;2.53;1.20;;;;;;;5.68;46.12;101790.97;4984309;28;97310;-82
2022/04/03 07:55:12;;;;;;;1.63;1.50;;;;;;;5.96;46.06;101790.25;4985498;28;97269;-84
2022/04/03 07:57:39;;;;;;;3.23;1.20;;;;;;;6.25;45.67;101794.91;4985350;28;97431;-83
2022/04/03 08:00:10;;;;;;;1.27;1.17;;;;;;;6.55;46.07;101795.16;4987774;28;98379;-84
2022/04/03 08:02:37;;;;;;;3.57;1.60;;;;;;;6.70;45.29;101792.78;4988459;28;97466;-83
2022/04/03 08:05:03;;;;;;;1.77;1.23;;;;;;;6.82;45.12;101783.81;4985145;28;96748;-84
2022/04/03 08:07:35;;;;;;;2.00;1.33;;;;;;;6.93;45.37;101786.97;4978730;28;96967;-82
2022/04/03 08:10:01;;;;;;;1.07;0.97;;;;;;;6.99;45.10;101785.19;4987043;28;103913;-83
2022/04/03 08:12:27;;;;;;;1.10;0.93;;;;;;;7.05;45.15;101788.16;4990421;28;96919;-84
2022/04/03 08:14:52;;;;;;;1.93;1.03;;;;;;;7.15;44.96;101790.56;4981378;28;97878;-83
2022/04/03 08:17:18;;;;;;;1.47;1.07;;;;;;;7.24;44.64;101784.41;4985586;28;96991;-84
2022/04/03 08:19:43;;;;;;;1.90;1.20;;;;;;;7.30;45.20;101802.56;4987895;28;97708;-83
2022/04/03 08:22:09;;;;;;;1.10;1.03;;;;;;;7.34;44.78;101789.53;4989004;28;96801;-82
2022/04/03 08:24:34;;;;;;;0.73;0.73;;;;;;;7.44;45.00;101791.16;4989296;28;96926;-82
2022/04/03 08:26:59;;;;;;;2.40;1.33;;;;;;;7.51;44.92;101790.88;4984543;28;97045;-83
2022/04/03 08:29:25;;;;;;;2.97;1.30;;;;;;;7.63;44.92;101802.25;4984562;28;97793;-84
2022/04/03 08:31:50;;;;;;;0.80;0.80;;;;;;;7.67;44.91;101794.66;4987885;28;98821;-84
2022/04/03 08:34:17;;;;;;;1.20;1.00;;;;;;;7.82;44.80;101809.44;4993788;28;96957;-82
2022/04/03 08:36:43;;;;;;;1.00;1.00;;;;;;;8.00;44.97;101790.38;4995804;28;97053;-84
2022/04/03 08:39:09;;;;;;;1.60;1.33;;;;;;;8.17;44.50;101795.19;5003735;28;96938;-83
2022/04/03 08:41:35;;;;;;;4.53;1.13;;;;;;;8.30;44.37;101784.94;4987000;28;97560;-83
2022/04/03 08:44:01;;;;;;;1.57;1.10;;;;;;;8.43;44.55;101793.09;4989370;28;96978;-84
2022/04/03 08:46:32;;;;;;;1.40;1.20;;;;;;;8.47;44.14;101798.44;4989256;28;96883;-85
2022/04/03 08:48:59;;;;;;;1.73;1.20;;;;;;;8.45;44.21;101818.09;4989820;28;98238;-83
2022/04/03 08:51:27;;;;;;;0.93;0.93;;;;;;;8.46;44.18;101800.44;4986752;28;98980;-84
2022/04/03 08:53:53;;;;;;;1.13;1.03;;;;;;;8.36;44.18;101803.56;4988143;28;97343;-83
2022/04/03 08:56:19;;;;;;;2.07;1.50;;;;;;;8.30;44.48;101795.16;4982743;28;96852;-84
2022/04/03 08:58:44;;;;;;;1.93;1.73;;;;;;;8.28;44.45;101801.09;4983780;28;98684;-83
2022/04/03 09:01:10;;;;;;;1.60;1.30;;;;;;;8.24;44.37;101807.88;4984231;28;99828;-84
2022/04/03 09:03:37;;;;;;;0.97;0.80;;;;;;;8.28;44.64;101792.09;4987823;28;96853;-83
2022/04/03 09:06:16;;;;;;;1.37;0.80;;;;;;;8.31;44.87;101788.47;4987283;28;97294;-83
2022/04/03 09:08:42;;;;;;;0.97;0.80;;;;;;;8.36;44.66;101784.38;4986758;28;97985;-83
2022/04/03 09:11:08;;;;;;;0.90;0.90;;;;;;;8.34;44.62;101787.56;4985891;28;98633;-82
2022/04/03 09:13:37;;;;;;;1.10;1.00;;;;;;;8.36;44.52;101793.38;4987078;28;96778;-84
2022/04/03 09:16:05;;;;;;;1.60;1.13;;;;;;;8.30;44.67;101784.19;4985165;28;97197;-84
2022/04/03 09:18:48;;;;;;;4.00;1.40;;;;;;;8.39;44.80;101791.72;4985183;28;97125;-83
2022/04/03 09:21:25;;;;;;;0.70;0.70;;;;;;;8.46;44.42;101774.97;4985219;28;101690;-84
2022/04/03 09:24:02;;;;;;;0.90;0.60;;;;;;;8.53;44.96;101780.97;4984525;28;97143;-84
2022/04/03 09:26:28;;;;;;;1.10;0.80;;;;;;;8.61;44.63;101776.72;4987295;28;97098;-83
2022/04/03 09:29:14;;;;;;;1.20;0.80;;;;;;;8.99;45.07;101776.41;4986828;28;96935;-83
2022/04/03 09:31:41;;;;;;;1.10;1.10;;;;;;;9.45;44.49;101772.53;5002202;28;103759;-85
2022/04/03 09:34:15;;;;;;;0.80;0.80;;;;;;;9.80;44.22;101765.50;4978169;28;96985;-83
2022/04/03 09:36:40;;;;;;;0.60;0.60;;;;;;;10.05;43.85;101763.59;4986521;28;96710;-85
2022/04/03 09:39:08;;;;;;;0.93;0.70;;;;;;;10.14;43.67;101756.13;4980929;28;97960;-85
2022/04/03 09:41:54;;;;;;;1.03;0.93;;;;;;;10.37;43.73;101760.22;4985700;28;98685;-83
2022/04/03 09:44:25;;;;;;;1.63;0.97;;;;;;;10.73;43.57;101762.03;4987393;28;96680;-84
2022/04/03 09:47:16;;;;;;;0.77;0.77;;;;;;;10.97;42.51;101755.34;4986082;28;96875;-85
2022/04/03 09:49:44;;;;;;;1.20;0.80;;;;;;;10.95;42.82;101744.03;4984585;28;100657;-83
2022/04/03 09:52:10;;;;;;;0.90;0.70;;;;;;;10.87;43.08;101751.13;4985849;28;97619;-84
2022/04/03 09:54:39;;;;;;;0.67;0.60;;;;;;;11.03;42.74;101749.97;4986413;28;97062;-85
2022/04/03 09:57:34;;;;;;;1.20;1.00;;;;;;;11.02;42.21;101740.16;4986956;28;96889;-84
2022/04/03 09:59:59;;;;;;;4.03;1.97;;;;;;;10.87;42.61;101736.59;4970414;28;100968;-83
2022/04/03 10:02:24;;;;;;;3.70;1.70;;;;;;;10.66;42.73;101748.63;4986225;28;97619;-83
2022/04/03 10:04:51;;;;;;;3.27;0.97;;;;;;;10.38;43.05;101740.47;4986335;28;97132;-84
2022/04/03 10:07:17;;;;;;;1.60;1.07;;;;;;;10.15;43.25;101735.69;4985112;28;97183;-83
2022/04/03 10:09:49;;;;;;;1.30;1.07;;;;;;;9.97;43.57;101729.41;4979123;28;96962;-82
2022/04/03 10:12:20;;;;;;;1.47;1.20;;;;;;;10.00;43.95;101739.50;4979299;28;102525;-84
2022/04/03 10:14:47;;;;;;;1.67;1.57;;;;;;;10.23;44.27;101744.34;4979820;28;97322;-85
2022/04/03 10:17:13;;;;;;;1.53;1.20;;;;;;;10.59;43.98;101749.72;4984589;28;97231;-85
2022/04/03 10:19:39;;;;;;;1.10;1.00;;;;;;;10.84;43.61;101729.25;4986817;28;99814;-84
2022/04/03 10:22:13;;;;;;;1.27;0.70;;;;;;;11.12;43.29;101733.34;4987555;28;98556;-85
2022/04/03 10:24:41;;;;;;;0.80;0.70;;;;;;;11.30;43.09;101720.22;4986338;28;97058;-86
2022/04/03 10:27:09;;;;;;;0.70;0.70;;;;;;;11.33;42.62;101711.00;4981819;28;97179;-83
2022/04/03 10:29:38;;;;;;;0.80;0.80;;;;;;;11.43;42.66;101719.97;4987204;28;98274;-83
2022/04/03 10:32:05;;;;;;;0.80;0.60;;;;;;;11.40;42.58;101731.91;4982107;28;103845;-84
2022/04/03 10:34:44;;;;;;;1.30;0.90;;;;;;;11.32;42.58;101711.47;4985092;28;97042;-84
2022/04/03 10:37:41;;;;;;;2.50;0.80;;;;;;;11.25;41.61;101729.13;4983281;28;97170;-82
2022/04/03 10:40:08;;;;;;;2.73;1.07;;;;;;;11.23;42.60;101722.56;4978939;28;100632;-84
2022/04/03 10:42:47;;;;;;;0.60;0.60;;;;;;;11.44;42.12;101713.25;4985062;28;97311;-84
2022/04/03 10:45:12;;;;;;;1.60;1.50;;;;;;;11.51;42.24;101720.38;4981228;28;96870;-85
2022/04/03 10:47:42;;;;;;;1.80;1.43;;;;;;;11.44;41.70;101715.22;4993117;28;96959;-84
2022/04/03 10:50:09;;;;;;;3.07;0.97;;;;;;;11.25;42.25;101714.59;4992628;28;98737;-86
2022/04/03 10:52:37;;;;;;;1.83;1.13;;;;;;;11.23;42.37;101717.81;4987006;28;99120;-83
2022/04/03 10:55:20;;;;;;;1.40;0.90;;;;;;;11.23;42.18;101711.56;4987415;28;97073;-83
2022/04/03 10:57:50;;;;;;;2.23;1.20;;;;;;;11.13;42.26;101718.38;4991240;28;97236;-82
2022/04/03 11:00:16;;;;;;;1.83;1.00;;;;;;;11.11;42.60;101710.59;4989437;28;97708;-83
2022/04/03 11:02:52;;;;;;;1.87;1.60;;;;;;;11.10;42.57;101713.78;4991617;28;99261;-84
2022/04/03 11:05:27;;;;;;;1.90;1.10;;;;;;;11.15;42.15;101711.16;4989124;28;97471;-84
2022/04/03 11:07:53;;;;;;;1.27;1.00;;;;;;;11.19;42.44;101706.22;4992408;28;97399;-85
2022/04/03 11:10:45;;;;;;;1.63;1.00;;;;;;;11.28;42.15;101697.13;4994809;28;97545;-85
2022/04/03 11:13:11;;;;;;;1.13;0.70;;;;;;;11.49;42.57;101698.78;4986410;28;100744;-86
2022/04/03 11:15:45;;;;;;;2.73;0.80;;;;;;;12.04;42.06;101697.03;4988650;28;97376;-87
2022/04/03 11:18:32;;;;;;;1.60;1.13;;;;;;;12.54;40.98;101689.53;4984097;28;96794;-85
2022/04/03 11:21:13;;;;;;;1.43;0.90;;;;;;;12.72;40.78;101692.03;4990841;28;100685;-85
2022/04/03 11:23:41;;;;;;;2.70;1.07;;;;;;;12.70;40.85;101685.47;4991769;28;98198;-84
2022/04/03 11:26:07;;;;;;;0.80;0.80;;;;;;;12.54;41.04;101688.75;4986270;28;96930;-85
2022/04/03 11:28:36;;;;;;;1.17;0.60;;;;;;;12.44;41.28;101684.59;4992395;28;97207;-84
2022/04/03 11:31:03;;;;;;;0.97;0.50;;;;;;;12.67;41.10;101683.66;4988518;28;97646;-83